Time;durP1;ratioP1;P1;durP2;ratioP2;P2;SDS_P1;SDS_P2;PMS_P1;PMS_P2;Temp;Humidity;BMP_temperature;BMP_pressure;BME280_temperature;BME280_humidity;BME280_pressure;Samples;Min_cycle;Max_cycle;Signal;HPM_P1;HPM_P2
2022/06/24 00:01:42;;;;;;;4.10;1.70;;;;;;;;;;4995250;28;20481;-84
2022/06/24 00:04:08;;;;;;;5.70;1.53;;;;;;;;;;4994325;28;20790;-85
2022/06/24 00:06:43;;;;;;;3.40;1.40;;;;;;;;;;4992925;28;20503;-85
2022/06/24 00:09:11;;;;;;;2.27;1.20;;;;;;;;;;4994183;28;20453;-85
2022/06/24 00:11:37;;;;;;;3.90;1.17;;;;;;;;;;4993878;28;20412;-84
2022/06/24 00:14:25;;;;;;;4.60;1.33;;;;;;;;;;4994656;28;20405;-84
2022/06/24 00:17:05;;;;;;;3.10;1.57;;;;;;;;;;4993786;28;20464;-85
2022/06/24 00:19:32;;;;;;;2.00;1.20;;;;;;;;;;4992649;28;20417;-85
2022/06/24 00:21:58;;;;;;;3.60;1.13;;;;;;;;;;4994484;28;20427;-84
2022/06/24 00:24:25;;;;;;;1.80;1.00;;;;;;;;;;4993623;28;20538;-84
2022/06/24 00:26:51;;;;;;;2.37;1.30;;;;;;;;;;4993540;28;20441;-84
2022/06/24 00:29:17;;;;;;;1.40;0.90;;;;;;;;;;4995287;28;20459;-85
2022/06/24 00:31:59;;;;;;;4.43;1.60;;;;;;;;;;4993510;28;20459;-85
2022/06/24 00:34:25;;;;;;;3.27;1.57;;;;;;;;;;4993342;28;20416;-84
2022/06/24 00:36:51;;;;;;;2.60;1.10;;;;;;;;;;4993005;28;20433;-85
2022/06/24 00:39:17;;;;;;;2.80;1.00;;;;;;;;;;4992699;28;20413;-85
2022/06/24 00:41:43;;;;;;;2.87;1.43;;;;;;;;;;4992402;28;20933;-85
2022/06/24 00:44:11;;;;;;;2.57;1.00;;;;;;;;;;4992555;28;20401;-84
2022/06/24 00:46:40;;;;;;;3.10;1.10;;;;;;;;;;4993116;28;20429;-85
2022/06/24 00:49:09;;;;;;;1.90;0.93;;;;;;;;;;4991414;28;20504;-85
2022/06/24 00:51:41;;;;;;;5.03;1.27;;;;;;;;;;4992232;28;20413;-84
2022/06/24 00:54:09;;;;;;;4.77;1.20;;;;;;;;;;4990970;28;20413;-84
2022/06/24 00:56:35;;;;;;;2.93;1.20;;;;;;;;;;4992063;28;20452;-84
2022/06/24 00:59:02;;;;;;;1.70;1.00;;;;;;;;;;4992558;28;20413;-84
2022/06/24 01:01:33;;;;;;;6.57;1.03;;;;;;;;;;4992751;28;20440;-84
2022/06/24 01:03:59;;;;;;;2.23;1.03;;;;;;;;;;4992141;28;20413;-85
2022/06/24 01:06:26;;;;;;;2.40;1.00;;;;;;;;;;4991903;28;20452;-85
2022/06/24 01:08:52;;;;;;;3.70;1.10;;;;;;;;;;4992506;28;21063;-84
2022/06/24 01:11:24;;;;;;;2.17;1.10;;;;;;;;;;4990895;28;20397;-84
2022/06/24 01:13:51;;;;;;;3.63;1.20;;;;;;;;;;4991142;28;20517;-84
2022/06/24 01:16:17;;;;;;;1.77;1.07;;;;;;;;;;4991615;28;20978;-83
2022/06/24 01:18:43;;;;;;;1.73;1.07;;;;;;;;;;4994148;28;20413;-83
2022/06/24 01:21:12;;;;;;;1.87;1.20;;;;;;;;;;4993723;28;20492;-85
2022/06/24 01:23:38;;;;;;;2.73;1.30;;;;;;;;;;4993447;28;20417;-85
2022/06/24 01:26:04;;;;;;;2.33;1.00;;;;;;;;;;4991454;28;20437;-83
2022/06/24 01:28:30;;;;;;;2.23;0.90;;;;;;;;;;4992343;28;20457;-84
2022/06/24 01:30:56;;;;;;;1.80;1.00;;;;;;;;;;4993163;28;20527;-84
2022/06/24 01:33:22;;;;;;;5.33;1.23;;;;;;;;;;4986026;28;20397;-83
2022/06/24 01:35:48;;;;;;;2.77;1.40;;;;;;;;;;4978382;28;20775;-83
2022/06/24 01:38:14;;;;;;;1.90;1.00;;;;;;;;;;4975360;28;20457;-83
2022/06/24 01:40:40;;;;;;;1.80;1.10;;;;;;;;;;4944191;29;20430;-83
2022/06/24 01:43:06;;;;;;;3.40;1.20;;;;;;;;;;4950602;29;20769;-83
2022/06/24 01:45:32;;;;;;;2.43;0.90;;;;;;;;;;4945759;29;20822;-83
2022/06/24 01:47:58;;;;;;;2.33;0.90;;;;;;;;;;4964224;29;20429;-83
2022/06/24 01:50:24;;;;;;;3.03;1.40;;;;;;;;;;4952114;29;20402;-83
2022/06/24 01:52:50;;;;;;;4.90;1.00;;;;;;;;;;4950608;29;20410;-83
2022/06/24 01:55:16;;;;;;;2.23;1.10;;;;;;;;;;4968965;29;20484;-84
2022/06/24 01:57:42;;;;;;;3.13;1.20;;;;;;;;;;4952167;29;20414;-83
2022/06/24 02:00:09;;;;;;;4.73;1.10;;;;;;;;;;4953075;29;20441;-84
2022/06/24 02:02:35;;;;;;;2.17;0.93;;;;;;;;;;4951744;29;20437;-83
2022/06/24 02:05:01;;;;;;;2.67;1.17;;;;;;;;;;4968922;29;20438;-84
2022/06/24 02:07:27;;;;;;;2.10;1.53;;;;;;;;;;4953167;29;20469;-84
2022/06/24 02:15:22;;;;;;;5.37;1.70;;;;;;;;;;4969294;29;20421;-84
2022/06/24 02:17:48;;;;;;;2.30;1.20;;;;;;;;;;4970859;29;20402;-83
2022/06/24 02:20:14;;;;;;;4.63;1.70;;;;;;;;;;4953535;29;20414;-83
2022/06/24 02:22:40;;;;;;;4.03;1.20;;;;;;;;;;4954915;29;20934;-84
2022/06/24 02:25:06;;;;;;;2.30;1.20;;;;;;;;;;4955325;29;20491;-85
2022/06/24 02:27:32;;;;;;;2.90;1.03;;;;;;;;;;4954350;29;20438;-85
2022/06/24 02:29:58;;;;;;;3.40;1.70;;;;;;;;;;4959441;29;20457;-85
2022/06/24 02:32:24;;;;;;;3.00;1.27;;;;;;;;;;4961770;29;20433;-85
2022/06/24 02:34:50;;;;;;;3.27;1.30;;;;;;;;;;4961639;29;20414;-85
2022/06/24 02:37:16;;;;;;;3.10;1.30;;;;;;;;;;4961364;29;20405;-85
2022/06/24 02:39:42;;;;;;;4.00;1.10;;;;;;;;;;4960110;29;20492;-85
2022/06/24 02:42:08;;;;;;;2.43;1.07;;;;;;;;;;4962607;29;20425;-85
2022/06/24 02:44:34;;;;;;;3.27;1.50;;;;;;;;;;4961271;29;20452;-84
2022/06/24 02:47:00;;;;;;;4.90;1.50;;;;;;;;;;4964343;29;20437;-84
2022/06/24 02:49:26;;;;;;;3.10;1.27;;;;;;;;;;4963298;29;20457;-85
2022/06/24 02:51:52;;;;;;;4.33;1.70;;;;;;;;;;4962376;29;20401;-85
2022/06/24 02:54:18;;;;;;;2.43;1.07;;;;;;;;;;4963363;29;20402;-85
2022/06/24 02:56:44;;;;;;;2.43;1.27;;;;;;;;;;4982335;28;20426;-85
2022/06/24 02:59:10;;;;;;;3.10;1.60;;;;;;;;;;4969682;28;20933;-84
2022/06/24 03:01:36;;;;;;;4.00;1.30;;;;;;;;;;4983532;28;20422;-86
2022/06/24 03:04:02;;;;;;;1.80;1.30;;;;;;;;;;4981752;29;20401;-85
2022/06/24 03:06:28;;;;;;;4.13;1.40;;;;;;;;;;5027376;23;20913;-83
2022/06/24 03:08:54;;;;;;;5.63;1.20;;;;;;;;;;5028741;28;20463;-83
2022/06/24 03:11:20;;;;;;;3.87;1.73;;;;;;;;;;5030044;28;20478;-83
2022/06/24 03:13:46;;;;;;;3.40;1.53;;;;;;;;;;5024362;28;20414;-83
2022/06/24 03:16:12;;;;;;;3.03;1.40;;;;;;;;;;5023399;28;20796;-83
2022/06/24 03:18:38;;;;;;;3.47;1.30;;;;;;;;;;5023279;28;20481;-83
2022/06/24 03:21:07;;;;;;;3.20;1.47;;;;;;;;;;5022958;28;20922;-83
2022/06/24 03:23:33;;;;;;;3.90;1.80;;;;;;;;;;5022875;28;20407;-83
2022/06/24 03:26:02;;;;;;;3.70;1.87;;;;;;;;;;5023694;28;20425;-83
2022/06/24 03:28:28;;;;;;;2.20;1.20;;;;;;;;;;5023292;28;20450;-83
2022/06/24 03:30:54;;;;;;;5.00;1.30;;;;;;;;;;5023313;28;21018;-82
2022/06/24 03:33:20;;;;;;;4.43;1.20;;;;;;;;;;5022737;28;20434;-82
2022/06/24 03:35:46;;;;;;;4.93;1.60;;;;;;;;;;5005391;28;20959;-83
2022/06/24 03:38:12;;;;;;;5.53;1.50;;;;;;;;;;5022358;28;20454;-82
2022/06/24 03:40:38;;;;;;;6.00;1.47;;;;;;;;;;5022159;28;20911;-82
2022/06/24 03:43:04;;;;;;;3.30;1.63;;;;;;;;;;5019313;28;20410;-82
2022/06/24 03:45:30;;;;;;;2.07;1.37;;;;;;;;;;5001630;28;20399;-82
2022/06/24 03:47:56;;;;;;;2.30;1.50;;;;;;;;;;5018631;28;20438;-82
2022/06/24 03:50:22;;;;;;;2.23;1.20;;;;;;;;;;5018846;28;20502;-82
2022/06/24 03:52:48;;;;;;;2.40;1.30;;;;;;;;;;5017447;28;20447;-81
2022/06/24 03:55:14;;;;;;;3.93;1.60;;;;;;;;;;5017043;28;20467;-82
2022/06/24 03:57:40;;;;;;;3.17;1.37;;;;;;;;;;5017601;28;20780;-82
2022/06/24 04:00:07;;;;;;;8.20;1.73;;;;;;;;;;5018354;28;20807;-82
2022/06/24 04:02:33;;;;;;;2.37;1.30;;;;;;;;;;5018802;28;20511;-82
2022/06/24 04:04:59;;;;;;;5.30;1.60;;;;;;;;;;5019450;28;20410;-82
2022/06/24 04:07:25;;;;;;;4.80;1.57;;;;;;;;;;5001406;28;20935;-83
2022/06/24 04:09:51;;;;;;;3.10;1.33;;;;;;;;;;5019000;28;20502;-83
2022/06/24 04:12:17;;;;;;;2.23;1.40;;;;;;;;;;5019108;28;20442;-83
2022/06/24 04:17:28;;;;;;;2.90;1.20;;;;;;;;;;5019453;28;20460;-83
2022/06/24 04:19:54;;;;;;;1.70;0.90;;;;;;;;;;5020778;28;20478;-84
2022/06/24 04:22:21;;;;;;;4.80;1.60;;;;;;;;;;5032342;28;20399;-83
2022/06/24 04:24:47;;;;;;;6.13;1.63;;;;;;;;;;5019323;28;20411;-83
2022/06/24 04:27:13;;;;;;;3.63;1.67;;;;;;;;;;5018984;28;20423;-83
2022/06/24 04:29:39;;;;;;;4.40;1.87;;;;;;;;;;5019540;28;20419;-83
2022/06/24 04:32:05;;;;;;;4.73;1.63;;;;;;;;;;5018992;28;20452;-83
2022/06/24 04:34:31;;;;;;;4.00;1.30;;;;;;;;;;5019146;28;20403;-83
2022/06/24 04:36:57;;;;;;;5.50;1.40;;;;;;;;;;5018587;28;20437;-83
2022/06/24 04:39:23;;;;;;;5.63;1.33;;;;;;;;;;5018590;28;20542;-83
2022/06/24 04:41:49;;;;;;;3.80;1.87;;;;;;;;;;5019172;28;20406;-83
2022/06/24 04:44:15;;;;;;;4.50;1.77;;;;;;;;;;5019396;28;20400;-80
2022/06/24 04:46:41;;;;;;;5.20;1.43;;;;;;;;;;5018752;28;20419;-81
2022/06/24 04:49:07;;;;;;;4.23;1.90;;;;;;;;;;5018570;28;20403;-80
2022/06/24 04:51:33;;;;;;;2.73;1.50;;;;;;;;;;5018310;28;20404;-81
2022/06/24 04:53:59;;;;;;;3.70;1.43;;;;;;;;;;5018722;28;20410;-81
2022/06/24 04:56:25;;;;;;;7.33;2.50;;;;;;;;;;5019153;28;20915;-81
2022/06/24 04:58:51;;;;;;;2.90;1.70;;;;;;;;;;5001766;28;20451;-80
2022/06/24 05:01:17;;;;;;;3.33;1.77;;;;;;;;;;5018873;28;20406;-81
2022/06/24 05:03:43;;;;;;;8.87;2.27;;;;;;;;;;5003815;28;20407;-82
2022/06/24 05:06:09;;;;;;;4.43;1.97;;;;;;;;;;5020385;28;20469;-82
2022/06/24 05:08:35;;;;;;;2.80;1.80;;;;;;;;;;5016823;28;20809;-81
2022/06/24 05:11:01;;;;;;;3.23;1.60;;;;;;;;;;5017093;28;20411;-82
2022/06/24 05:13:27;;;;;;;7.57;2.00;;;;;;;;;;5017801;28;20403;-82
2022/06/24 05:15:54;;;;;;;3.80;1.50;;;;;;;;;;5022873;28;20791;-81
2022/06/24 05:18:20;;;;;;;5.83;1.93;;;;;;;;;;5031446;28;20458;-81
2022/06/24 05:20:46;;;;;;;4.03;1.77;;;;;;;;;;5032378;28;20400;-81
2022/06/24 05:23:12;;;;;;;9.93;2.37;;;;;;;;;;5010830;28;20445;-81
2022/06/24 05:25:38;;;;;;;4.50;1.60;;;;;;;;;;5028957;28;20483;-80
2022/06/24 05:28:04;;;;;;;4.80;1.70;;;;;;;;;;5028851;28;20408;-81
2022/06/24 05:30:30;;;;;;;4.90;1.50;;;;;;;;;;5029549;28;20415;-81
2022/06/24 05:32:56;;;;;;;3.87;1.70;;;;;;;;;;5028356;28;20486;-80
2022/06/24 05:35:22;;;;;;;5.07;1.63;;;;;;;;;;5027528;28;20408;-82
2022/06/24 05:37:48;;;;;;;2.97;1.90;;;;;;;;;;5025922;28;20399;-82
2022/06/24 05:40:14;;;;;;;5.03;1.83;;;;;;;;;;5021459;28;20491;-81
2022/06/24 05:42:40;;;;;;;8.37;1.97;;;;;;;;;;5019550;28;20411;-81
2022/06/24 05:45:07;;;;;;;5.47;2.30;;;;;;;;;;5020809;28;20399;-82
2022/06/24 05:47:34;;;;;;;3.97;1.60;;;;;;;;;;5003305;28;20478;-82
2022/06/24 05:50:00;;;;;;;4.10;1.50;;;;;;;;;;5020484;28;20441;-82
2022/06/24 05:55:11;;;;;;;2.00;1.10;;;;;;;;;;5019926;28;20456;-82
2022/06/24 05:57:37;;;;;;;5.70;1.83;;;;;;;;;;5019107;28;20939;-82
2022/06/24 06:00:03;;;;;;;3.77;1.10;;;;;;;;;;5019513;28;20466;-82
2022/06/24 06:02:29;;;;;;;3.00;1.10;;;;;;;;;;5020157;28;20813;-82
2022/06/24 06:04:55;;;;;;;3.13;1.40;;;;;;;;;;5019501;28;20415;-82
2022/06/24 06:07:21;;;;;;;3.83;1.57;;;;;;;;;;5019081;28;20445;-81
2022/06/24 06:09:47;;;;;;;3.40;1.60;;;;;;;;;;5001215;28;20483;-81
2022/06/24 06:12:13;;;;;;;9.70;1.67;;;;;;;;;;5020262;28;20417;-81
2022/06/24 06:14:40;;;;;;;6.17;1.80;;;;;;;;;;5021591;28;20439;-82
2022/06/24 06:17:07;;;;;;;7.03;1.80;;;;;;;;;;5001282;28;20435;-82
2022/06/24 06:19:34;;;;;;;3.67;1.57;;;;;;;;;;5018393;28;20863;-82
2022/06/24 06:22:01;;;;;;;3.90;1.40;;;;;;;;;;5018057;28;20407;-82
2022/06/24 06:24:27;;;;;;;8.00;1.63;;;;;;;;;;5018733;28;20411;-82
2022/06/24 06:26:53;;;;;;;5.03;1.63;;;;;;;;;;5018110;28;20467;-83
2022/06/24 06:29:19;;;;;;;3.33;1.80;;;;;;;;;;5017427;28;20411;-82
2022/06/24 06:31:45;;;;;;;3.97;1.77;;;;;;;;;;5018152;28;20407;-83
2022/06/24 06:34:11;;;;;;;4.93;1.60;;;;;;;;;;5017491;28;20891;-84
2022/06/24 06:36:37;;;;;;;4.37;1.60;;;;;;;;;;5018797;28;20442;-83
2022/06/24 06:39:03;;;;;;;2.83;1.60;;;;;;;;;;5019115;28;20466;-82
2022/06/24 06:41:29;;;;;;;4.13;1.30;;;;;;;;;;5018668;28;20407;-83
2022/06/24 06:43:56;;;;;;;2.90;1.40;;;;;;;;;;5022593;28;20431;-82
2022/06/24 06:46:22;;;;;;;4.53;1.40;;;;;;;;;;5030079;28;20408;-82
2022/06/24 06:48:48;;;;;;;4.43;1.50;;;;;;;;;;5012482;28;20415;-83
2022/06/24 06:51:14;;;;;;;5.17;1.40;;;;;;;;;;5001839;28;20408;-83
2022/06/24 06:53:40;;;;;;;3.60;1.20;;;;;;;;;;5019299;28;20493;-83
2022/06/24 06:56:06;;;;;;;4.63;1.20;;;;;;;;;;5019225;28;20522;-83
2022/06/24 06:58:32;;;;;;;4.23;1.83;;;;;;;;;;5003047;28;20462;-83
2022/06/24 07:00:58;;;;;;;4.23;1.73;;;;;;;;;;5021418;28;20770;-83
2022/06/24 07:03:24;;;;;;;3.37;1.77;;;;;;;;;;5005008;28;20893;-82
2022/06/24 07:05:51;;;;;;;3.80;1.40;;;;;;;;;;5021843;28;20814;-83
2022/06/24 07:08:17;;;;;;;4.33;1.50;;;;;;;;;;5022576;28;20395;-83
2022/06/24 07:10:44;;;;;;;3.40;1.40;;;;;;;;;;5022340;28;20450;-83
2022/06/24 07:13:10;;;;;;;5.50;1.80;;;;;;;;;;5022508;28;20407;-83
2022/06/24 07:15:37;;;;;;;5.00;2.07;;;;;;;;;;5024352;28;20450;-83
2022/06/24 07:18:04;;;;;;;4.60;1.57;;;;;;;;;;5027792;28;20483;-82
2022/06/24 07:20:30;;;;;;;3.70;1.70;;;;;;;;;;5026431;28;20431;-83
2022/06/24 07:22:56;;;;;;;5.00;1.47;;;;;;;;;;5026651;28;20406;-83
2022/06/24 07:25:22;;;;;;;5.40;1.90;;;;;;;;;;5026027;28;20453;-83
2022/06/24 07:27:48;;;;;;;5.17;1.80;;;;;;;;;;5026721;28;20398;-83
2022/06/24 07:30:15;;;;;;;4.73;2.27;;;;;;;;;;5024660;28;20399;-83
2022/06/24 07:32:41;;;;;;;7.60;1.80;;;;;;;;;;5022539;28;20401;-82
2022/06/24 07:35:07;;;;;;;5.17;1.90;;;;;;;;;;5024569;28;20399;-82
2022/06/24 07:37:33;;;;;;;6.07;1.83;;;;;;;;;;5027928;28;20419;-82
2022/06/24 07:39:59;;;;;;;7.60;1.90;;;;;;;;;;5026197;28;20451;-83
2022/06/24 07:42:25;;;;;;;4.17;2.13;;;;;;;;;;5023847;28;20403;-83
2022/06/24 07:44:51;;;;;;;7.53;2.20;;;;;;;;;;5022626;28;20480;-83
2022/06/24 07:47:17;;;;;;;5.67;2.27;;;;;;;;;;5022881;28;20445;-83
2022/06/24 07:49:43;;;;;;;5.10;1.90;;;;;;;;;;5025284;28;20411;-83
2022/06/24 07:52:10;;;;;;;2.90;1.63;;;;;;;;;;5023173;28;20565;-83
2022/06/24 07:54:37;;;;;;;9.43;1.93;;;;;;;;;;5023979;28;20776;-83
2022/06/24 07:57:03;;;;;;;5.00;2.23;;;;;;;;;;5030832;28;20525;-83
2022/06/24 07:59:33;;;;;;;4.63;1.80;;;;;;;;;;5028756;28;20517;-84
2022/06/24 08:02:00;;;;;;;6.33;2.27;;;;;;;;;;5025190;28;20458;-82
2022/06/24 08:04:30;;;;;;;3.53;1.83;;;;;;;;;;5029956;28;20400;-83
2022/06/24 08:06:56;;;;;;;3.07;1.80;;;;;;;;;;5014817;28;20796;-83
2022/06/24 08:09:23;;;;;;;5.87;2.13;;;;;;;;;;5027947;28;20461;-83
2022/06/24 08:11:51;;;;;;;4.17;2.03;;;;;;;;;;5009703;28;20411;-82
2022/06/24 08:14:17;;;;;;;8.30;2.37;;;;;;;;;;5026307;28;20400;-83
2022/06/24 08:16:43;;;;;;;10.80;1.97;;;;;;;;;;5026515;28;20545;-83
2022/06/24 08:19:10;;;;;;;4.73;1.83;;;;;;;;;;5025791;28;20451;-84
2022/06/24 08:21:36;;;;;;;4.47;2.43;;;;;;;;;;5008426;28;20429;-84
2022/06/24 08:24:03;;;;;;;7.90;2.23;;;;;;;;;;5021105;28;20432;-83
2022/06/24 08:26:29;;;;;;;5.10;2.10;;;;;;;;;;5020926;28;20431;-83
2022/06/24 08:28:56;;;;;;;3.90;1.60;;;;;;;;;;5023330;28;20418;-83
2022/06/24 08:31:22;;;;;;;6.87;2.10;;;;;;;;;;5023509;28;20407;-83
2022/06/24 08:33:48;;;;;;;4.30;2.23;;;;;;;;;;5022551;28;20411;-83
2022/06/24 08:36:14;;;;;;;5.33;2.00;;;;;;;;;;5022551;28;20434;-83
2022/06/24 08:38:40;;;;;;;5.10;2.27;;;;;;;;;;5005012;28;20830;-83
2022/06/24 08:41:06;;;;;;;3.50;1.77;;;;;;;;;;5022090;28;20407;-83
2022/06/24 08:43:34;;;;;;;9.20;2.30;;;;;;;;;;5004637;28;20406;-83
2022/06/24 08:46:00;;;;;;;5.83;2.60;;;;;;;;;;5023977;28;20427;-83
2022/06/24 08:48:27;;;;;;;6.53;2.00;;;;;;;;;;5005937;28;20410;-83
2022/06/24 08:50:53;;;;;;;6.53;2.30;;;;;;;;;;5023585;28;20932;-83
2022/06/24 08:53:22;;;;;;;6.70;1.87;;;;;;;;;;5025095;28;20400;-84
2022/06/24 08:55:50;;;;;;;7.83;2.53;;;;;;;;;;5024593;28;20527;-84
2022/06/24 08:58:17;;;;;;;6.93;1.83;;;;;;;;;;5006623;28;20443;-83
2022/06/24 09:00:43;;;;;;;8.13;2.57;;;;;;;;;;5023471;28;20495;-83
2022/06/24 09:03:09;;;;;;;4.90;2.00;;;;;;;;;;5004730;28;20395;-83
2022/06/24 09:08:20;;;;;;;8.40;2.27;;;;;;;;;;5020628;28;20477;-85
2022/06/24 09:11:07;;;;;;;6.23;2.30;;;;;;;;;;5031746;28;20435;-86
2022/06/24 09:13:49;;;;;;;7.13;2.13;;;;;;;;;;5032775;28;20878;-85
2022/06/24 09:16:17;;;;;;;7.83;2.03;;;;;;;;;;5015662;28;20437;-85
2022/06/24 09:18:49;;;;;;;6.87;2.27;;;;;;;;;;5033157;28;20452;-85
2022/06/24 09:21:27;;;;;;;8.70;2.00;;;;;;;;;;5015133;28;20416;-85
2022/06/24 09:23:55;;;;;;;4.60;2.10;;;;;;;;;;5014356;28;20411;-85
2022/06/24 09:26:32;;;;;;;5.13;1.90;;;;;;;;;;5017145;28;20530;-85
2022/06/24 09:28:58;;;;;;;7.10;2.20;;;;;;;;;;5032442;28;20883;-84
2022/06/24 09:31:28;;;;;;;9.87;2.40;;;;;;;;;;5015199;28;20423;-85
2022/06/24 09:33:55;;;;;;;10.53;2.53;;;;;;;;;;5032980;28;20415;-85
2022/06/24 09:36:25;;;;;;;6.50;2.23;;;;;;;;;;5033639;28;20446;-85
2022/06/24 09:39:00;;;;;;;4.60;1.90;;;;;;;;;;5016414;28;20451;-85
2022/06/24 09:41:26;;;;;;;9.73;2.57;;;;;;;;;;5033882;28;20435;-85
2022/06/24 09:43:53;;;;;;;12.73;2.20;;;;;;;;;;5032831;28;20404;-85
2022/06/24 09:46:20;;;;;;;5.87;2.90;;;;;;;;;;5033124;28;20477;-85
2022/06/24 09:48:46;;;;;;;6.17;2.23;;;;;;;;;;5033080;28;20469;-85
2022/06/24 09:51:12;;;;;;;6.07;1.93;;;;;;;;;;5033296;28;20518;-84
2022/06/24 09:53:40;;;;;;;6.33;2.40;;;;;;;;;;5017144;28;20461;-85
2022/06/24 09:56:07;;;;;;;4.30;2.20;;;;;;;;;;5034199;28;20419;-84
2022/06/24 09:58:34;;;;;;;12.23;2.83;;;;;;;;;;5020298;28;20473;-84
2022/06/24 10:01:01;;;;;;;8.70;2.30;;;;;;;;;;5016823;28;20416;-85
2022/06/24 10:03:27;;;;;;;6.57;1.80;;;;;;;;;;5016787;28;20419;-84
2022/06/24 10:05:54;;;;;;;6.13;2.10;;;;;;;;;;5016341;28;20451;-85
2022/06/24 10:08:22;;;;;;;4.63;2.03;;;;;;;;;;5016901;28;20414;-85
2022/06/24 10:10:59;;;;;;;10.10;3.40;;;;;;;;;;5033695;28;20391;-86
2022/06/24 10:13:25;;;;;;;4.83;1.80;;;;;;;;;;5015782;28;20435;-86
2022/06/24 10:15:51;;;;;;;11.90;2.70;;;;;;;;;;5015650;28;20416;-86
2022/06/24 10:18:19;;;;;;;5.80;2.20;;;;;;;;;;5015878;28;20434;-85
2022/06/24 10:20:46;;;;;;;8.30;2.57;;;;;;;;;;5015114;28;20501;-85
2022/06/24 10:23:30;;;;;;;6.73;2.30;;;;;;;;;;5033307;28;20431;-86
2022/06/24 10:25:56;;;;;;;3.73;1.90;;;;;;;;;;5037535;28;20491;-85
2022/06/24 10:28:22;;;;;;;8.97;2.20;;;;;;;;;;5034384;28;20471;-85
2022/06/24 10:30:50;;;;;;;7.10;2.40;;;;;;;;;;5033651;28;20391;-85
2022/06/24 10:33:18;;;;;;;7.73;2.33;;;;;;;;;;5032945;28;20411;-86
2022/06/24 10:35:56;;;;;;;5.33;1.80;;;;;;;;;;5032796;28;20438;-85
2022/06/24 10:38:23;;;;;;;4.00;1.80;;;;;;;;;;5016444;28;20403;-86
2022/06/24 10:40:50;;;;;;;4.53;2.53;;;;;;;;;;5033518;28;20493;-85
2022/06/24 10:43:35;;;;;;;9.27;1.93;;;;;;;;;;5033060;28;20405;-85
2022/06/24 10:46:13;;;;;;;5.87;2.07;;;;;;;;;;5033351;28;20407;-85
2022/06/24 10:48:51;;;;;;;8.47;2.50;;;;;;;;;;5033678;28;20395;-85
2022/06/24 10:51:21;;;;;;;4.00;1.57;;;;;;;;;;5018823;28;20496;-85
2022/06/24 10:54:02;;;;;;;4.20;1.60;;;;;;;;;;5037154;28;20417;-84
2022/06/24 10:56:38;;;;;;;7.80;1.87;;;;;;;;;;5018611;28;20431;-85
2022/06/24 10:59:04;;;;;;;4.20;2.00;;;;;;;;;;5019038;28;20458;-86
2022/06/24 11:01:30;;;;;;;5.97;2.00;;;;;;;;;;5019738;28;20411;-83
2022/06/24 11:03:57;;;;;;;6.40;3.47;;;;;;;;;;5018651;28;20492;-83
2022/06/24 11:06:23;;;;;;;4.23;1.73;;;;;;;;;;5019513;28;20439;-84
2022/06/24 11:08:49;;;;;;;7.80;1.90;;;;;;;;;;5036818;28;20441;-84
2022/06/24 11:11:27;;;;;;;5.30;2.07;;;;;;;;;;5036575;28;20407;-84
2022/06/24 11:13:53;;;;;;;6.67;1.67;;;;;;;;;;5036115;28;20394;-85
2022/06/24 11:16:19;;;;;;;3.80;1.73;;;;;;;;;;5035906;28;20449;-83
2022/06/24 11:18:49;;;;;;;4.27;1.50;;;;;;;;;;5036909;28;20943;-84
2022/06/24 11:21:17;;;;;;;7.87;1.90;;;;;;;;;;5018806;28;20411;-83
2022/06/24 11:23:43;;;;;;;5.10;2.00;;;;;;;;;;5035321;28;20415;-85
2022/06/24 11:26:12;;;;;;;7.43;1.70;;;;;;;;;;5036197;28;20427;-85
2022/06/24 11:28:39;;;;;;;5.20;2.17;;;;;;;;;;5016777;28;20447;-85
2022/06/24 11:31:25;;;;;;;4.53;1.77;;;;;;;;;;5035513;28;20414;-85
2022/06/24 11:34:11;;;;;;;6.43;2.03;;;;;;;;;;5022559;28;20758;-84
2022/06/24 11:36:38;;;;;;;4.90;2.10;;;;;;;;;;5022006;28;20411;-84
2022/06/24 11:39:09;;;;;;;5.43;2.10;;;;;;;;;;5023595;28;20412;-84
2022/06/24 11:41:39;;;;;;;3.57;1.80;;;;;;;;;;5009458;28;20481;-84
2022/06/24 11:44:05;;;;;;;3.90;1.87;;;;;;;;;;5012573;28;20412;-86
2022/06/24 11:46:32;;;;;;;3.90;1.57;;;;;;;;;;5012370;28;20503;-85
2022/06/24 11:49:04;;;;;;;4.93;1.60;;;;;;;;;;5032454;28;20462;-84
2022/06/24 11:51:30;;;;;;;5.80;2.10;;;;;;;;;;5032176;28;20399;-85
2022/06/24 11:54:00;;;;;;;5.13;1.80;;;;;;;;;;5015040;28;20531;-85
2022/06/24 11:56:38;;;;;;;5.27;1.70;;;;;;;;;;5032574;28;20482;-85
2022/06/24 11:59:05;;;;;;;6.40;2.30;;;;;;;;;;5033440;28;20391;-84
2022/06/24 12:01:32;;;;;;;6.10;2.07;;;;;;;;;;5033311;28;20450;-85
2022/06/24 12:04:02;;;;;;;5.07;1.70;;;;;;;;;;5034340;28;20407;-85
2022/06/24 12:06:29;;;;;;;5.93;2.20;;;;;;;;;;5032856;28;20447;-85
2022/06/24 12:08:55;;;;;;;4.40;1.97;;;;;;;;;;5015389;28;20451;-85
2022/06/24 12:11:22;;;;;;;6.97;2.70;;;;;;;;;;5015765;28;20420;-85
2022/06/24 12:13:57;;;;;;;10.30;3.00;;;;;;;;;;5032608;28;20388;-85
2022/06/24 12:16:27;;;;;;;6.63;1.97;;;;;;;;;;5016177;28;20931;-85
2022/06/24 12:18:54;;;;;;;4.17;1.97;;;;;;;;;;5015613;28;20446;-85
2022/06/24 12:21:27;;;;;;;6.83;2.07;;;;;;;;;;5032914;28;20426;-85
2022/06/24 12:23:53;;;;;;;4.70;1.90;;;;;;;;;;5016385;28;20427;-85
2022/06/24 12:26:26;;;;;;;7.73;2.07;;;;;;;;;;5015259;28;20455;-85
2022/06/24 12:28:59;;;;;;;5.20;2.13;;;;;;;;;;5032648;28;20439;-85
2022/06/24 12:31:26;;;;;;;5.30;2.37;;;;;;;;;;5033451;28;20399;-84
2022/06/24 12:33:56;;;;;;;3.43;1.80;;;;;;;;;;5033954;28;20407;-85
2022/06/24 12:36:23;;;;;;;7.80;3.20;;;;;;;;;;5033137;28;20430;-85
2022/06/24 12:38:52;;;;;;;5.93;2.10;;;;;;;;;;5033434;28;20399;-84
2022/06/24 12:41:19;;;;;;;5.90;2.20;;;;;;;;;;5033050;28;20752;-85
2022/06/24 12:43:51;;;;;;;6.90;2.50;;;;;;;;;;5015809;28;20427;-84
2022/06/24 12:46:17;;;;;;;2.80;1.80;;;;;;;;;;5015080;28;20445;-84
2022/06/24 12:51:28;;;;;;;9.43;2.20;;;;;;;;;;5033824;28;20551;-83
2022/06/24 12:53:54;;;;;;;6.20;2.13;;;;;;;;;;5016472;28;20407;-84
2022/06/24 12:56:21;;;;;;;5.53;2.23;;;;;;;;;;5033258;28;20443;-85
2022/06/24 12:58:50;;;;;;;5.40;2.50;;;;;;;;;;5033069;28;20406;-84
2022/06/24 13:01:16;;;;;;;6.13;2.37;;;;;;;;;;5015825;28;20419;-84
2022/06/24 13:03:42;;;;;;;9.53;2.37;;;;;;;;;;5016682;28;20538;-85
2022/06/24 13:06:08;;;;;;;4.20;2.13;;;;;;;;;;5033492;28;20419;-85
2022/06/24 13:08:34;;;;;;;3.77;2.00;;;;;;;;;;5016335;28;20458;-85
2022/06/24 13:11:00;;;;;;;3.70;1.90;;;;;;;;;;5016327;28;20407;-86
2022/06/24 13:13:27;;;;;;;6.60;2.50;;;;;;;;;;5015223;28;20415;-85
2022/06/24 13:15:53;;;;;;;4.50;1.90;;;;;;;;;;5033234;28;20407;-85
2022/06/24 13:18:20;;;;;;;3.23;1.90;;;;;;;;;;5016255;28;20392;-85
2022/06/24 13:20:46;;;;;;;6.50;2.10;;;;;;;;;;5016326;28;20395;-85
2022/06/24 13:23:12;;;;;;;8.20;1.90;;;;;;;;;;5033542;28;20407;-85
2022/06/24 13:25:40;;;;;;;4.43;2.47;;;;;;;;;;5034888;28;20383;-84
2022/06/24 13:28:06;;;;;;;3.40;1.70;;;;;;;;;;5038727;28;20447;-85
2022/06/24 13:30:32;;;;;;;27.67;6.17;;;;;;;;;;5035860;28;20454;-86
2022/06/24 13:32:58;;;;;;;26.13;5.40;;;;;;;;;;5031180;28;20407;-86
2022/06/24 13:35:25;;;;;;;49.90;6.93;;;;;;;;;;5029567;28;20438;-86
2022/06/24 13:37:51;;;;;;;267.80;20.93;;;;;;;;;;5025353;28;20433;-87
2022/06/24 13:40:17;;;;;;;19.87;10.83;;;;;;;;;;5030185;28;20380;-87
2022/06/24 13:42:43;;;;;;;11.23;7.00;;;;;;;;;;5018790;28;20415;-87
2022/06/24 13:45:09;;;;;;;26.37;10.00;;;;;;;;;;5036858;28;20420;-87
2022/06/24 13:47:35;;;;;;;19.27;9.60;;;;;;;;;;5011324;28;20443;-87
2022/06/24 13:50:01;;;;;;;23.57;8.87;;;;;;;;;;5029108;28;20451;-87
2022/06/24 13:52:28;;;;;;;48.43;10.37;;;;;;;;;;5025951;28;20414;-87
2022/06/24 13:54:58;;;;;;;68.60;11.87;;;;;;;;;;5010603;28;20446;-87
2022/06/24 13:57:26;;;;;;;15.23;7.90;;;;;;;;;;5031256;28;20423;-86
2022/06/24 13:59:53;;;;;;;7.63;5.60;;;;;;;;;;5031470;28;20480;-85
2022/06/24 14:02:20;;;;;;;14.30;10.70;;;;;;;;;;5015651;28;20411;-86
2022/06/24 14:04:46;;;;;;;23.30;10.20;;;;;;;;;;5019798;28;20427;-88
